PWSweather.com
Personal Weather Stations
Station Observations
KMOSTLOU24
Lindenwood Park , St. Louis, MO 63109

Lindenwood Park St. Louis, MO 63109

Lat: 38.597, Lon: -90.315

Elevation: 468

Station Type: Honeywell TN924W

http://lpweather.herobo.com

Latest ConditionsUpdated 10:00:10 AM CDT Monday, Jul 28, 2014
Currently Today's Max Today's Min Today's Average
Temperature 78.1°F25.6°C 78.1°F25.6°C 65.7°F18.7°C 70.1°F21.2°C
Dew Point 63.5°F17.5°C 64.4°F18.0°C 58.0°F14.4°C 59.7°F15.4°C
Winds 0.9 mph NW1.4 kmh NW 1.4 mph ENE2.3 kmh ENE - 0.5 mph 0.8 kmh
Wind Gusts 1.4 mph2.3 kmh 3.2 mph5.1 kmh - -
Humidity 61% 79% 61% 70%
Pressure 30.06 in1017.9 mb 30.06 in1017.9 mb 29.96 in1014.6 mb -
Hour Temp Dew Point Humidity Winds Wind Gusts Pressure Precip Precip Rate Daily Precip Total
10:00 AM 78.1°F25.6°C 63.5°F17.5°C 61% 0.9 mph NW1.4 kmh NW 1.4 mph2.3 kmh 30.06 in1017.9 mb 0.00 in0.0 mm 0.00 in/hr0.0 mm/hr 0.00 in0.0 mm
09:50 AM 77.5°F25.3°C 64.4°F18.0°C 64% 0.6 mph NNE1.0 kmh NNE 1.2 mph1.9 kmh 30.06 in1017.9 mb 0.00 in0.0 mm 0.00 in/hr0.0 mm/hr 0.00 in0.0 mm
09:40 AM 75.6°F24.2°C 63.0°F17.2°C 65% 1.0 mph NW1.6 kmh NW 1.4 mph2.3 kmh 30.06 in1017.9 mb 0.00 in0.0 mm 0.00 in/hr0.0 mm/hr 0.00 in0.0 mm
09:30 AM 75.7°F24.3°C 62.7°F17.1°C 64% 1.2 mph SSE1.9 kmh SSE 1.7 mph2.7 kmh 30.06 in1017.9 mb 0.00 in0.0 mm 0.00 in/hr0.0 mm/hr 0.00 in0.0 mm
09:20 AM 76.5°F24.7°C 63.4°F17.4°C 64% 0.6 mph ESE1.0 kmh ESE 1.5 mph2.4 kmh 30.06 in1017.9 mb 0.00 in0.0 mm 0.00 in/hr0.0 mm/hr 0.00 in0.0 mm
09:10 AM 76.5°F24.7°C 63.4°F17.4°C 64% 0.8 mph SE1.3 kmh SE -- 30.06 in1017.9 mb 0.00 in0.0 mm 0.00 in/hr0.0 mm/hr 0.00 in0.0 mm
09:00 AM 76.5°F24.7°C 63.4°F17.4°C 64% 0.5 mph SSE0.8 kmh SSE 3.2 mph5.1 kmh 30.05 in1017.6 mb 0.00 in0.0 mm 0.00 in/hr0.0 mm/hr 0.00 in0.0 mm
08:50 AM 75.2°F24.0°C 62.6°F17.0°C 65% 0.3 mph N0.5 kmh N -- 30.05 in1017.6 mb 0.00 in0.0 mm 0.00 in/hr0.0 mm/hr 0.00 in0.0 mm
08:40 AM 75.0°F23.9°C 62.9°F17.2°C 66% 0.3 mph ENE0.5 kmh ENE -- 30.05 in1017.6 mb 0.00 in0.0 mm 0.00 in/hr0.0 mm/hr 0.00 in0.0 mm
08:30 AM 73.9°F23.3°C 63.1°F17.3°C 69% 1.0 mph NNE1.6 kmh NNE 1.3 mph2.1 kmh 30.05 in1017.6 mb 0.00 in0.0 mm 0.00 in/hr0.0 mm/hr 0.00 in0.0 mm
08:20 AM 73.2°F22.9°C 62.4°F16.9°C 69% 0.7 mph NNE1.1 kmh NNE -- 30.04 in1017.3 mb 0.00 in0.0 mm 0.00 in/hr0.0 mm/hr 0.00 in0.0 mm
08:00 AM 71.1°F21.7°C 62.4°F16.9°C 74% 0.7 mph NNE1.1 kmh NNE 1.5 mph2.4 kmh 30.04 in1017.3 mb 0.00 in0.0 mm 0.00 in/hr0.0 mm/hr 0.00 in0.0 mm
07:50 AM 68.4°F20.2°C 61.2°F16.2°C 78% 0.7 mph NNE1.1 kmh NNE -- 30.04 in1017.3 mb 0.00 in0.0 mm 0.00 in/hr0.0 mm/hr 0.00 in0.0 mm
07:40 AM 66.7°F19.3°C 60.0°F15.6°C 79% 0.8 mph N1.3 kmh N 2.0 mph3.2 kmh 30.04 in1017.3 mb 0.00 in0.0 mm 0.00 in/hr0.0 mm/hr 0.00 in0.0 mm
07:30 AM 66.4°F19.1°C 59.7°F15.4°C 79% 0.2 mph NW0.3 kmh NW 2.2 mph3.5 kmh 30.04 in1017.3 mb 0.00 in0.0 mm 0.00 in/hr0.0 mm/hr 0.00 in0.0 mm
07:21 AM 66.2°F19.0°C 59.5°F15.3°C 79% 0.1 mph N0.2 kmh N -- 30.03 in1016.9 mb 0.00 in0.0 mm 0.00 in/hr0.0 mm/hr 0.00 in0.0 mm
07:10 AM 66.0°F18.9°C 59.3°F15.2°C 79% 0.1 mph ENE0.2 kmh ENE 1.7 mph2.7 kmh 30.03 in1016.9 mb 0.00 in0.0 mm 0.00 in/hr0.0 mm/hr 0.00 in0.0 mm
07:00 AM 66.0°F18.9°C 59.3°F15.2°C 79% 0.1 mph N0.2 kmh N -- 30.02 in1016.6 mb 0.00 in0.0 mm 0.00 in/hr0.0 mm/hr 0.00 in0.0 mm
06:50 AM 65.8°F18.8°C 59.1°F15.1°C 79% 0.1 mph NNW0.2 kmh NNW -- 30.02 in1016.6 mb 0.00 in0.0 mm 0.00 in/hr0.0 mm/hr 0.00 in0.0 mm
06:40 AM 65.7°F18.7°C 58.6°F14.8°C 78% Calm Calm -- 30.01 in1016.3 mb 0.00 in0.0 mm 0.00 in/hr0.0 mm/hr 0.00 in0.0 mm
06:30 AM 65.7°F18.7°C 58.6°F14.8°C 78% 0.1 mph S0.2 kmh S -- 30.01 in1016.3 mb 0.00 in0.0 mm 0.00 in/hr0.0 mm/hr 0.00 in0.0 mm
06:20 AM 65.7°F18.7°C 58.3°F14.6°C 77% Calm Calm -- 30.02 in1016.6 mb 0.00 in0.0 mm 0.00 in/hr0.0 mm/hr 0.00 in0.0 mm
06:10 AM 66.0°F18.9°C 58.6°F14.8°C 77% Calm Calm -- 30.02 in1016.6 mb 0.00 in0.0 mm 0.00 in/hr0.0 mm/hr 0.00 in0.0 mm
06:00 AM 65.8°F18.8°C 58.4°F14.7°C 77% 0.1 mph ENE0.2 kmh ENE -- 30.01 in1016.3 mb 0.00 in0.0 mm 0.00 in/hr0.0 mm/hr 0.00 in0.0 mm
05:50 AM 66.0°F18.9°C 58.6°F14.8°C 77% 0.2 mph NNE0.3 kmh NNE -- 30.01 in1016.3 mb 0.00 in0.0 mm 0.00 in/hr0.0 mm/hr 0.00 in0.0 mm
05:40 AM 66.0°F18.9°C 58.2°F14.6°C 76% 0.1 mph N0.2 kmh N 1.2 mph1.9 kmh 30.00 in1015.9 mb 0.00 in0.0 mm 0.00 in/hr0.0 mm/hr 0.00 in0.0 mm
05:30 AM 66.4°F19.1°C 58.6°F14.8°C 76% 0.2 mph ENE0.3 kmh ENE -- 30.00 in1015.9 mb 0.00 in0.0 mm 0.00 in/hr0.0 mm/hr 0.00 in0.0 mm
05:20 AM 66.4°F19.1°C 58.2°F14.6°C 75% Calm Calm -- 30.00 in1015.9 mb 0.00 in0.0 mm 0.00 in/hr0.0 mm/hr 0.00 in0.0 mm
05:10 AM 66.6°F19.2°C 58.0°F14.4°C 74% 0.2 mph E0.3 kmh E -- 30.00 in1015.9 mb 0.00 in0.0 mm 0.00 in/hr0.0 mm/hr 0.00 in0.0 mm
05:00 AM 66.7°F19.3°C 58.2°F14.6°C 74% 0.1 mph NNE0.2 kmh NNE -- 29.99 in1015.6 mb 0.00 in0.0 mm 0.00 in/hr0.0 mm/hr 0.00 in0.0 mm
04:50 AM 67.1°F19.5°C 58.5°F14.7°C 74% 0.5 mph NW0.8 kmh NW -- 29.99 in1015.6 mb 0.00 in0.0 mm 0.00 in/hr0.0 mm/hr 0.00 in0.0 mm
04:40 AM 67.3°F19.6°C 58.3°F14.6°C 73% 0.3 mph SE0.5 kmh SE 1.4 mph2.3 kmh 29.98 in1015.2 mb 0.00 in0.0 mm 0.00 in/hr0.0 mm/hr 0.00 in0.0 mm
04:30 AM 67.5°F19.7°C 58.1°F14.5°C 72% 0.5 mph NNE0.8 kmh NNE -- 29.98 in1015.2 mb 0.00 in0.0 mm 0.00 in/hr0.0 mm/hr 0.00 in0.0 mm
04:20 AM 67.6°F19.8°C 58.3°F14.6°C 72% 0.3 mph NW0.5 kmh NW -- 29.98 in1015.2 mb 0.00 in0.0 mm 0.00 in/hr0.0 mm/hr 0.00 in0.0 mm
04:10 AM 68.0°F20.0°C 58.2°F14.6°C 71% 0.2 mph N0.3 kmh N -- 29.98 in1015.2 mb 0.00 in0.0 mm 0.00 in/hr0.0 mm/hr 0.00 in0.0 mm
04:00 AM 68.2°F20.1°C 58.4°F14.7°C 71% 0.5 mph ENE0.8 kmh ENE 1.7 mph2.7 kmh 29.97 in1014.9 mb 0.00 in0.0 mm 0.00 in/hr0.0 mm/hr 0.00 in0.0 mm
03:50 AM 68.5°F20.3°C 58.8°F14.9°C 71% 0.3 mph N0.5 kmh N 1.2 mph1.9 kmh 29.97 in1014.9 mb 0.00 in0.0 mm 0.00 in/hr0.0 mm/hr 0.00 in0.0 mm
03:40 AM 68.7°F20.4°C 58.5°F14.7°C 70% 0.3 mph NNE0.5 kmh NNE -- 29.97 in1014.9 mb 0.00 in0.0 mm 0.00 in/hr0.0 mm/hr 0.00 in0.0 mm
03:30 AM 69.1°F20.6°C 58.9°F14.9°C 70% 0.3 mph NNE0.5 kmh NNE 1.5 mph2.4 kmh 29.97 in1014.9 mb 0.00 in0.0 mm 0.00 in/hr0.0 mm/hr 0.00 in0.0 mm
03:20 AM 69.3°F20.7°C 58.7°F14.8°C 69% 0.3 mph N0.5 kmh N -- 29.97 in1014.9 mb 0.00 in0.0 mm 0.00 in/hr0.0 mm/hr 0.00 in0.0 mm
03:10 AM 69.4°F20.8°C 58.4°F14.7°C 68% 0.6 mph SE1.0 kmh SE 1.2 mph1.9 kmh 29.97 in1014.9 mb 0.00 in0.0 mm 0.00 in/hr0.0 mm/hr 0.00 in0.0 mm
03:00 AM 69.6°F20.9°C 58.6°F14.8°C 68% 0.3 mph SE0.5 kmh SE -- 29.97 in1014.9 mb 0.00 in0.0 mm 0.00 in/hr0.0 mm/hr 0.00 in0.0 mm
02:50 AM 70.0°F21.1°C 58.5°F14.7°C 67% 0.5 mph ENE0.8 kmh ENE -- 29.97 in1014.9 mb 0.00 in0.0 mm 0.00 in/hr0.0 mm/hr 0.00 in0.0 mm
02:40 AM 70.0°F21.1°C 58.5°F14.7°C 67% 1.0 mph NNE1.6 kmh NNE -- 29.97 in1014.9 mb 0.00 in0.0 mm 0.00 in/hr0.0 mm/hr 0.00 in0.0 mm
02:30 AM 70.2°F21.2°C 58.7°F14.8°C 67% 1.0 mph ESE1.6 kmh ESE 2.0 mph3.2 kmh 29.97 in1014.9 mb 0.00 in0.0 mm 0.00 in/hr0.0 mm/hr 0.00 in0.0 mm
02:20 AM 70.3°F21.3°C 58.4°F14.7°C 66% 1.2 mph NW1.9 kmh NW 2.8 mph4.5 kmh 29.97 in1014.9 mb 0.00 in0.0 mm 0.00 in/hr0.0 mm/hr 0.00 in0.0 mm
02:10 AM 70.7°F21.5°C 58.8°F14.9°C 66% 0.7 mph NNW1.1 kmh NNW 1.8 mph2.9 kmh 29.97 in1014.9 mb 0.00 in0.0 mm 0.00 in/hr0.0 mm/hr 0.00 in0.0 mm
02:00 AM 70.7°F21.5°C 58.8°F14.9°C 66% 1.0 mph SSE1.6 kmh SSE 1.5 mph2.4 kmh 29.96 in1014.6 mb 0.00 in0.0 mm 0.00 in/hr0.0 mm/hr 0.00 in0.0 mm
01:50 AM 70.9°F21.6°C 59.0°F15.0°C 66% 0.6 mph ENE1.0 kmh ENE 1.4 mph2.3 kmh 29.96 in1014.6 mb 0.00 in0.0 mm 0.00 in/hr0.0 mm/hr 0.00 in0.0 mm
01:40 AM 71.1°F21.7°C 58.7°F14.8°C 65% 1.0 mph E1.6 kmh E 2.2 mph3.5 kmh 29.97 in1014.9 mb 0.00 in0.0 mm 0.00 in/hr0.0 mm/hr 0.00 in0.0 mm
01:30 AM 71.2°F21.8°C 58.9°F14.9°C 65% 1.2 mph N1.9 kmh N -- 29.97 in1014.9 mb 0.00 in0.0 mm 0.00 in/hr0.0 mm/hr 0.00 in0.0 mm
01:20 AM 71.4°F21.9°C 58.6°F14.8°C 64% 1.2 mph NW1.9 kmh NW 3.1 mph5.0 kmh 29.97 in1014.9 mb 0.00 in0.0 mm 0.00 in/hr0.0 mm/hr 0.00 in0.0 mm
01:10 AM 71.8°F22.1°C 58.9°F14.9°C 64% 1.2 mph N1.9 kmh N -- 29.97 in1014.9 mb 0.00 in0.0 mm 0.00 in/hr0.0 mm/hr 0.00 in0.0 mm
01:00 AM 72.0°F22.2°C 59.1°F15.1°C 64% 1.0 mph SE1.6 kmh SE 1.4 mph2.3 kmh 29.96 in1014.6 mb 0.00 in0.0 mm 0.00 in/hr0.0 mm/hr 0.00 in0.0 mm
12:50 AM 72.1°F22.3°C 58.8°F14.9°C 63% 0.7 mph E1.1 kmh E 1.0 mph1.6 kmh 29.96 in1014.6 mb 0.00 in0.0 mm 0.00 in/hr0.0 mm/hr 0.00 in0.0 mm
12:40 AM 72.5°F22.5°C 59.2°F15.1°C 63% 1.4 mph ENE2.3 kmh ENE -- 29.96 in1014.6 mb 0.00 in0.0 mm 0.00 in/hr0.0 mm/hr 0.00 in0.0 mm
12:30 AM 72.5°F22.5°C 59.2°F15.1°C 63% 0.7 mph E1.1 kmh E 1.7 mph2.7 kmh 29.96 in1014.6 mb 0.00 in0.0 mm 0.00 in/hr0.0 mm/hr 0.00 in0.0 mm
12:20 AM 72.9°F22.7°C 59.1°F15.1°C 62% 0.7 mph ENE1.1 kmh ENE -- 29.96 in1014.6 mb 0.00 in0.0 mm 0.00 in/hr0.0 mm/hr 0.00 in0.0 mm
12:10 AM 73.0°F22.8°C 59.2°F15.1°C 62% 0.7 mph NNW1.1 kmh NNW 2.9 mph4.7 kmh 29.96 in1014.6 mb 0.00 in0.0 mm 0.00 in/hr0.0 mm/hr 0.00 in0.0 mm
12:00 AM 73.6°F23.1°C 59.8°F15.4°C 62% 0.7 mph NNW1.1 kmh NNW 2.0 mph3.2 kmh 29.96 in1014.6 mb 0.00 in0.0 mm 0.00 in/hr0.0 mm/hr 0.00 in0.0 mm